WZZ52S EGKK-LOWI
Flight info
| Callsign | WZZ52S |
|---|---|
| Flight time | N/A |
| Altitude | 33000 |
| Route | DVR L9 KONAN DCT KOK UL607 FERDI DCT REMBA DCT LIRSU DCT KRH DCT TEDGO DCT BATUB M738 MADEB MADEB1B |
| Aircraft | A320/M-SDE3FGHIRWY/LB1 |
Departure
| Time | 2026-05-06 12:21 |
|---|---|
| Airport | London Gatwick Airport (EGKK) |
Arrival
| Time | N/A |
|---|---|
| Airport | Innsbruck Airport (LOWI) |
| Time | Latitude | Longitude | Altitude | Speed | Heading |
|---|---|---|---|---|---|
| 2026-05-06 11:50 | 51.15654 | -0.17793 | 214 ft | 0 kts | 167° |
| 2026-05-06 12:09 | 51.15658 | -0.17795 | 214 ft | 0 kts | 167° |
| 2026-05-06 12:11 | 51.15669 | -0.17799 | 215 ft | 2 kts | 167° |
| 2026-05-06 12:11 | 51.15685 | -0.17805 | 214 ft | 2 kts | 167° |
| 2026-05-06 12:11 | 51.15701 | -0.17811 | 210 ft | 2 kts | 180° |
| 2026-05-06 12:11 | 51.15716 | -0.17802 | 214 ft | 2 kts | 232° |
| 2026-05-06 12:12 | 51.15722 | -0.17785 | 209 ft | 0 kts | 253° |
| 2026-05-06 12:13 | 51.15722 | -0.17786 | 210 ft | 1 kts | 253° |
| 2026-05-06 12:13 | 51.15716 | -0.17818 | 211 ft | 4 kts | 256° |
| 2026-05-06 12:13 | 51.15709 | -0.17873 | 209 ft | 7 kts | 258° |
| 2026-05-06 12:14 | 51.15695 | -0.17979 | 205 ft | 12 kts | 258° |
| 2026-05-06 12:14 | 51.15675 | -0.18124 | 212 ft | 14 kts | 259° |
| 2026-05-06 12:14 | 51.15653 | -0.18290 | 211 ft | 16 kts | 253° |
| 2026-05-06 12:14 | 51.15562 | -0.18339 | 207 ft | 16 kts | 169° |
| 2026-05-06 12:15 | 51.15450 | -0.18299 | 216 ft | 17 kts | 168° |
| 2026-05-06 12:15 | 51.15326 | -0.18257 | 205 ft | 19 kts | 168° |
| 2026-05-06 12:15 | 51.15200 | -0.18249 | 211 ft | 18 kts | 220° |
| 2026-05-06 12:15 | 51.15177 | -0.18373 | 205 ft | 18 kts | 257° |
| 2026-05-06 12:16 | 51.15172 | -0.18414 | 213 ft | 19 kts | 260° |
| 2026-05-06 12:16 | 51.15143 | -0.18630 | 214 ft | 21 kts | 257° |
| 2026-05-06 12:16 | 51.15110 | -0.18870 | 213 ft | 23 kts | 258° |
| 2026-05-06 12:16 | 51.15077 | -0.19128 | 208 ft | 25 kts | 259° |
| 2026-05-06 12:17 | 51.15039 | -0.19406 | 209 ft | 26 kts | 258° |
| 2026-05-06 12:17 | 51.14999 | -0.19698 | 213 ft | 28 kts | 258° |
| 2026-05-06 12:17 | 51.14955 | -0.20012 | 217 ft | 30 kts | 257° |
| 2026-05-06 12:17 | 51.14907 | -0.20341 | 209 ft | 31 kts | 258° |
| 2026-05-06 12:18 | 51.14862 | -0.20688 | 207 ft | 33 kts | 257° |
| 2026-05-06 12:18 | 51.14811 | -0.21045 | 214 ft | 34 kts | 257° |
| 2026-05-06 12:18 | 51.14751 | -0.21387 | 212 ft | 16 kts | 235° |
| 2026-05-06 12:18 | 51.14701 | -0.21394 | 209 ft | 7 kts | 160° |
| 2026-05-06 12:19 | 51.14651 | -0.21352 | 213 ft | 9 kts | 150° |
| 2026-05-06 12:19 | 51.14587 | -0.21316 | 214 ft | 10 kts | 163° |
| 2026-05-06 12:19 | 51.14529 | -0.21238 | 211 ft | 12 kts | 119° |
| 2026-05-06 12:19 | 51.14529 | -0.21105 | 214 ft | 13 kts | 76° |
| 2026-05-06 12:20 | 51.14562 | -0.20881 | 208 ft | 43 kts | 76° |
| 2026-05-06 12:20 | 51.14677 | -0.20055 | 208 ft | 106 kts | 77° |
| 2026-05-06 12:20 | 51.14871 | -0.18656 | 215 ft | 152 kts | 77° |
| 2026-05-06 12:20 | 51.15118 | -0.16872 | 470 ft | 171 kts | 68° |
| 2026-05-06 12:21 | 51.15450 | -0.14965 | 983 ft | 186 kts | 71° |
| 2026-05-06 12:21 | 51.15822 | -0.12916 | 1522 ft | 200 kts | 71° |
| 2026-05-06 12:21 | 51.16154 | -0.10640 | 1907 ft | 222 kts | 75° |
| 2026-05-06 12:21 | 51.16469 | -0.08093 | 2314 ft | 246 kts | 75° |
| 2026-05-06 12:22 | 51.16799 | -0.05360 | 3083 ft | 255 kts | 76° |
| 2026-05-06 12:22 | 51.16954 | -0.03153 | 3800 ft | 261 kts | 88° |
| 2026-05-06 12:22 | 51.16849 | -0.00235 | 4739 ft | 266 kts | 89° |
| 2026-05-06 12:22 | 51.16771 | 0.02684 | 5613 ft | 269 kts | 89° |
| 2026-05-06 12:23 | 51.16709 | 0.05698 | 6499 ft | 275 kts | 88° |
| 2026-05-06 12:23 | 51.16656 | 0.08767 | 7312 ft | 279 kts | 88° |
| 2026-05-06 12:23 | 51.16605 | 0.11880 | 8141 ft | 283 kts | 89° |
| 2026-05-06 12:23 | 51.16552 | 0.15028 | 8978 ft | 287 kts | 89° |
| 2026-05-06 12:24 | 51.16520 | 0.18232 | 9806 ft | 291 kts | 86° |
| 2026-05-06 12:24 | 51.16526 | 0.21479 | 10507 ft | 295 kts | 87° |
| 2026-05-06 12:24 | 51.16543 | 0.24765 | 11235 ft | 299 kts | 88° |
| 2026-05-06 12:24 | 51.16561 | 0.28052 | 11962 ft | 302 kts | 87° |
| 2026-05-06 12:25 | 51.16576 | 0.31425 | 12646 ft | 307 kts | 88° |
| 2026-05-06 12:25 | 51.16586 | 0.34852 | 13318 ft | 312 kts | 88° |
| 2026-05-06 12:25 | 51.16594 | 0.38327 | 14026 ft | 315 kts | 89° |
| 2026-05-06 12:25 | 51.16598 | 0.41835 | 14639 ft | 319 kts | 88° |
| 2026-05-06 12:26 | 51.16599 | 0.45395 | 15215 ft | 324 kts | 89° |
| 2026-05-06 12:26 | 51.16599 | 0.48997 | 15880 ft | 326 kts | 89° |
| 2026-05-06 12:26 | 51.16596 | 0.52721 | 16076 ft | 346 kts | 90° |
| 2026-05-06 12:26 | 51.16591 | 0.56650 | 16205 ft | 364 kts | 89° |
| 2026-05-06 12:27 | 51.16584 | 0.60781 | 16349 ft | 380 kts | 90° |
| 2026-05-06 12:27 | 51.16580 | 0.65036 | 16720 ft | 389 kts | 89° |
| 2026-05-06 12:27 | 51.16577 | 0.69319 | 17169 ft | 395 kts | 90° |
| 2026-05-06 12:27 | 51.16570 | 0.73695 | 17758 ft | 397 kts | 90° |
| 2026-05-06 12:28 | 51.16559 | 0.78113 | 18311 ft | 400 kts | 90° |
| 2026-05-06 12:28 | 51.16543 | 0.82562 | 18767 ft | 404 kts | 90° |
| 2026-05-06 12:28 | 51.16527 | 0.87054 | 19317 ft | 406 kts | 90° |
| 2026-05-06 12:28 | 51.16512 | 0.91583 | 19777 ft | 410 kts | 90° |
| 2026-05-06 12:29 | 51.16498 | 0.96140 | 20279 ft | 413 kts | 91° |
| 2026-05-06 12:29 | 51.16479 | 1.00717 | 20818 ft | 414 kts | 91° |
| 2026-05-06 12:29 | 51.16456 | 1.05316 | 21245 ft | 418 kts | 91° |
| 2026-05-06 12:29 | 51.16433 | 1.09904 | 21725 ft | 420 kts | 91° |
| 2026-05-06 12:30 | 51.16407 | 1.14567 | 22186 ft | 422 kts | 91° |
| 2026-05-06 12:30 | 51.16381 | 1.19259 | 22614 ft | 426 kts | 91° |
| 2026-05-06 12:30 | 51.16352 | 1.23986 | 23092 ft | 427 kts | 91° |
| 2026-05-06 12:30 | 51.16319 | 1.28738 | 23515 ft | 431 kts | 92° |
| 2026-05-06 12:31 | 51.16281 | 1.33529 | 23886 ft | 433 kts | 92° |
| 2026-05-06 12:31 | 51.16216 | 1.38329 | 24268 ft | 435 kts | 93° |
| 2026-05-06 12:31 | 51.16054 | 1.43151 | 24617 ft | 437 kts | 95° |
| 2026-05-06 12:31 | 51.15818 | 1.47982 | 24987 ft | 438 kts | 96° |
| 2026-05-06 12:32 | 51.15542 | 1.52838 | 25345 ft | 440 kts | 96° |
| 2026-05-06 12:32 | 51.15260 | 1.57643 | 25672 ft | 443 kts | 96° |
| 2026-05-06 12:32 | 51.14984 | 1.62533 | 26064 ft | 444 kts | 96° |
| 2026-05-06 12:32 | 51.14721 | 1.67448 | 26414 ft | 446 kts | 95° |
| 2026-05-06 12:33 | 51.14473 | 1.72385 | 26760 ft | 449 kts | 95° |
| 2026-05-06 12:33 | 51.14230 | 1.77346 | 27154 ft | 450 kts | 95° |
| 2026-05-06 12:33 | 51.13987 | 1.82320 | 27460 ft | 453 kts | 95° |
| 2026-05-06 12:33 | 51.13738 | 1.87331 | 27824 ft | 454 kts | 95° |
| 2026-05-06 12:34 | 51.13480 | 1.92354 | 28195 ft | 456 kts | 95° |
| 2026-05-06 12:34 | 51.13218 | 1.97385 | 28581 ft | 456 kts | 96° |
| 2026-05-06 12:34 | 51.12958 | 2.02337 | 29137 ft | 453 kts | 95° |
| 2026-05-06 12:34 | 51.12693 | 2.07319 | 29663 ft | 451 kts | 96° |
| 2026-05-06 12:35 | 51.12424 | 2.12289 | 30137 ft | 450 kts | 95° |
| 2026-05-06 12:35 | 51.12155 | 2.17238 | 30609 ft | 448 kts | 95° |
| 2026-05-06 12:35 | 51.11889 | 2.22169 | 30999 ft | 448 kts | 96° |
| 2026-05-06 12:35 | 51.11623 | 2.27095 | 31427 ft | 446 kts | 96° |
| 2026-05-06 12:36 | 51.11352 | 2.32011 | 31870 ft | 445 kts | 96° |
| 2026-05-06 12:36 | 51.11077 | 2.36913 | 32292 ft | 444 kts | 96° |
| 2026-05-06 12:36 | 51.10804 | 2.41801 | 32751 ft | 442 kts | 96° |
| 2026-05-06 12:36 | 51.10535 | 2.46606 | 32921 ft | 443 kts | 96° |
| 2026-05-06 12:37 | 51.09973 | 2.56466 | 32948 ft | 449 kts | 96° |
| 2026-05-06 12:37 | 51.09236 | 2.66339 | 32943 ft | 449 kts | 104° |
| 2026-05-06 12:38 | 51.07545 | 2.75880 | 32945 ft | 449 kts | 108° |
| 2026-05-06 12:38 | 51.05819 | 2.85348 | 32945 ft | 448 kts | 107° |
| 2026-05-06 12:39 | 51.04084 | 2.94854 | 32950 ft | 447 kts | 107° |
| 2026-05-06 12:39 | 51.02347 | 3.04328 | 32944 ft | 447 kts | 107° |
| 2026-05-06 12:40 | 51.00600 | 3.13812 | 32941 ft | 447 kts | 108° |
| 2026-05-06 12:40 | 50.98852 | 3.23273 | 32933 ft | 447 kts | 108° |
| 2026-05-06 12:41 | 50.97101 | 3.32681 | 32929 ft | 446 kts | 107° |
| 2026-05-06 12:41 | 50.95343 | 3.42108 | 32923 ft | 445 kts | 108° |
| 2026-05-06 12:42 | 50.93580 | 3.51517 | 32921 ft | 445 kts | 107° |
| 2026-05-06 12:42 | 50.91800 | 3.60898 | 32917 ft | 445 kts | 108° |
| 2026-05-06 12:43 | 50.90010 | 3.70273 | 32917 ft | 445 kts | 108° |
| 2026-05-06 12:43 | 50.88234 | 3.79581 | 32909 ft | 445 kts | 107° |
| 2026-05-06 12:44 | 50.86445 | 3.88939 | 32911 ft | 445 kts | 107° |
| 2026-05-06 12:44 | 50.84642 | 3.98308 | 32907 ft | 445 kts | 108° |
| 2026-05-06 12:45 | 50.82838 | 4.07659 | 32905 ft | 444 kts | 108° |